createdAt,value
2023-02-24T04:28:51.216Z,21.51
2023-02-24T04:31:21.308Z,20.79
2023-02-24T04:33:54.915Z,20.42
2023-02-24T04:36:24.583Z,19.64
2023-02-24T04:38:55.804Z,19.61
2023-02-24T04:41:26.254Z,19.08
2023-02-24T04:43:56.194Z,19.16
2023-02-24T04:46:25.942Z,19.35
2023-02-24T04:48:56.118Z,18.36
2023-02-24T04:51:25.750Z,18.44
2023-02-24T04:53:56.951Z,18.60
2023-02-24T04:56:26.693Z,18.54
2023-02-24T04:58:56.526Z,19.01
2023-02-24T05:01:26.216Z,18.26
2023-02-24T05:03:56.045Z,17.88
2023-02-24T05:06:25.754Z,17.97
2023-02-24T05:08:55.384Z,18.59
2023-02-24T05:11:25.167Z,17.84
2023-02-24T05:13:54.811Z,18.37
2023-02-24T05:16:24.619Z,18.29
2023-02-24T05:19:14.235Z,17.98
2023-02-24T05:21:43.842Z,18.46
2023-02-24T05:24:14.023Z,17.90
2023-02-24T05:26:44.002Z,17.64
2023-02-24T05:29:14.155Z,17.79
2023-02-24T05:31:43.827Z,17.79
2023-02-24T05:34:18.589Z,16.94
2023-02-24T05:36:48.465Z,17.32
2023-02-24T05:39:21.040Z,16.63
2023-02-24T05:41:51.441Z,15.91
2023-02-24T05:44:24.686Z,15.93
2023-02-24T05:47:00.362Z,15.72
2023-02-24T05:49:34.659Z,15.64
2023-02-24T05:52:09.295Z,15.44
2023-02-24T05:54:43.311Z,15.04
2023-02-24T05:57:18.839Z,15.33
2023-02-24T05:59:49.944Z,15.14
2023-02-24T06:02:28.792Z,14.84
2023-02-24T06:05:00.412Z,15.46
2023-02-24T06:07:38.977Z,16.06
2023-02-24T06:10:11.869Z,16.54
2023-02-24T06:12:41.516Z,16.81
2023-02-24T06:15:11.545Z,16.78
2023-02-24T06:17:41.280Z,17.00
2023-02-24T06:20:16.943Z,17.30
2023-02-24T06:22:46.689Z,16.94
2023-02-24T06:25:16.363Z,17.42
2023-02-24T06:27:46.539Z,17.70
2023-02-24T06:30:16.753Z,17.78
2023-02-24T06:32:47.035Z,17.35
2023-02-24T06:35:17.406Z,17.09
2023-02-24T06:37:47.187Z,17.41
2023-02-24T06:40:19.683Z,17.24
2023-02-24T06:42:56.385Z,17.22
2023-02-24T06:45:28.385Z,17.16
2023-02-24T06:47:58.083Z,17.25
2023-02-24T06:50:27.753Z,17.15
2023-02-24T06:53:02.183Z,17.23
2023-02-24T06:55:31.774Z,17.64
2023-02-24T06:58:05.810Z,17.65
2023-02-24T07:00:41.987Z,16.78
2023-02-24T07:03:19.889Z,17.87
2023-02-24T07:06:12.762Z,17.17
2023-02-24T07:08:42.922Z,17.39
2023-02-24T07:11:13.091Z,17.47
2023-02-24T07:13:46.118Z,17.56
2023-02-24T07:16:17.800Z,16.86
2023-02-24T07:18:49.881Z,17.24
2023-02-24T07:21:22.191Z,17.28
2023-02-24T07:23:52.251Z,16.49
2023-02-24T07:26:25.694Z,16.74
2023-02-24T07:28:59.636Z,16.33
2023-02-24T07:31:29.355Z,16.77
2023-02-24T07:33:59.111Z,16.43
2023-02-24T07:36:31.472Z,16.54
2023-02-24T07:39:01.449Z,16.29
2023-02-24T07:41:31.543Z,16.27
2023-02-24T07:44:04.711Z,16.10
2023-02-24T07:46:35.241Z,16.18
2023-02-24T07:49:05.712Z,17.06
2023-02-24T07:51:35.358Z,16.23
2023-02-24T07:54:05.040Z,16.16
2023-02-24T07:56:34.670Z,16.31
2023-02-24T07:59:09.397Z,16.89
2023-02-24T08:01:42.473Z,16.13
2023-02-24T08:04:17.419Z,15.90
2023-02-24T08:06:48.148Z,15.96
2023-02-24T08:09:20.723Z,16.37
2023-02-24T08:11:54.826Z,16.18
2023-02-24T08:14:36.425Z,16.84
2023-02-24T08:17:07.021Z,16.48
2023-02-24T08:19:41.245Z,16.34
2023-02-24T08:22:25.634Z,16.21
2023-02-24T08:24:56.917Z,16.71
2023-02-24T08:27:27.544Z,16.51
2023-02-24T08:30:00.311Z,16.08
2023-02-24T08:32:35.535Z,16.31
2023-02-24T08:35:19.113Z,16.27
2023-02-24T08:37:50.593Z,16.58
2023-02-24T08:40:34.478Z,16.31
2023-02-24T08:43:18.116Z,16.64
2023-02-24T08:45:52.415Z,16.03
2023-02-24T08:48:49.859Z,16.08
2023-02-24T08:51:30.075Z,15.72
2023-02-24T08:54:01.479Z,16.39
2023-02-24T08:56:35.931Z,16.13
2023-02-24T08:59:07.349Z,16.32
2023-02-24T09:01:39.330Z,16.35
2023-02-24T09:04:20.569Z,16.06
2023-02-24T09:07:11.073Z,15.68
2023-02-24T09:09:43.725Z,16.39
2023-02-24T09:12:23.356Z,16.39
2023-02-24T09:14:57.983Z,16.28
2023-02-24T09:17:51.392Z,16.13
2023-02-24T09:20:43.524Z,16.37
2023-02-24T09:23:21.488Z,16.15
2023-02-24T09:25:55.829Z,16.01
2023-02-24T09:28:26.920Z,15.78
2023-02-24T09:30:58.395Z,15.87
2023-02-24T09:33:40.341Z,16.28
2023-02-24T09:36:21.701Z,16.14
2023-02-24T09:39:01.886Z,15.69
2023-02-24T09:41:33.325Z,15.66
2023-02-24T09:44:19.680Z,15.97
2023-02-24T09:47:00.131Z,15.94
2023-02-24T09:49:47.995Z,15.78
2023-02-24T09:52:20.766Z,15.47
2023-02-24T09:55:10.079Z,15.68
2023-02-24T09:58:29.391Z,15.65
2023-02-24T10:01:23.076Z,15.87
2023-02-24T10:04:20.750Z,15.97
2023-02-24T10:06:59.248Z,15.43
2023-02-24T10:09:40.702Z,15.86
2023-02-24T10:12:25.536Z,15.86
2023-02-24T10:15:20.642Z,15.34
2023-02-24T10:17:59.662Z,15.58
2023-02-24T10:20:46.136Z,15.75
2023-02-24T10:23:46.596Z,15.92
2023-02-24T10:27:07.368Z,15.66
2023-02-24T10:29:52.350Z,15.68
2023-02-24T10:32:35.466Z,15.79
2023-02-24T10:35:05.253Z,15.74
2023-02-24T10:37:35.803Z,15.47
2023-02-24T10:40:14.531Z,15.14
2023-02-24T10:42:47.332Z,15.21
2023-02-24T10:45:35.285Z,15.21
2023-02-24T10:48:10.938Z,15.47
2023-02-24T10:50:55.401Z,15.91
2023-02-24T10:53:41.097Z,15.55
2023-02-24T10:56:29.016Z,15.56
2023-02-24T10:59:22.266Z,15.36
2023-02-24T11:01:57.164Z,15.31
2023-02-24T11:04:55.490Z,15.26
2023-02-24T11:07:35.190Z,15.19
2023-02-24T11:10:27.477Z,15.79
2023-02-24T11:13:15.851Z,15.61
2023-02-24T11:16:13.891Z,15.71
2023-02-24T11:18:49.354Z,15.33
2023-02-24T11:21:19.705Z,15.42
2023-02-24T11:23:51.994Z,15.31
2023-02-24T11:26:38.904Z,15.47
2023-02-24T11:29:15.099Z,15.96
2023-02-24T11:32:15.115Z,15.70
2023-02-24T11:35:07.888Z,15.33
2023-02-24T11:38:03.476Z,15.68
2023-02-24T11:40:45.224Z,15.15
2023-02-24T11:43:20.039Z,15.26
2023-02-24T11:45:55.920Z,15.75
2023-02-24T11:48:36.392Z,15.27
2023-02-24T11:51:08.010Z,15.38
2023-02-24T11:54:13.926Z,15.28
2023-02-24T11:56:48.571Z,15.22
2023-02-24T11:59:39.933Z,15.49
2023-02-24T12:02:37.175Z,15.50
2023-02-24T12:05:21.208Z,15.54
2023-02-24T12:07:52.470Z,15.35
2023-02-24T12:10:36.449Z,15.01
2023-02-24T12:13:27.888Z,15.28
2023-02-24T12:16:17.289Z,15.42
2023-02-24T12:18:47.904Z,15.25
2023-02-24T12:21:26.651Z,15.77
2023-02-24T12:23:56.337Z,15.16
2023-02-24T12:26:27.550Z,15.09
2023-02-24T12:29:44.778Z,15.67
2023-02-24T12:32:42.875Z,15.56
2023-02-24T12:35:21.474Z,15.54
2023-02-24T12:38:33.143Z,15.05
2023-02-24T12:41:13.198Z,15.01
2023-02-24T12:44:09.506Z,15.54
2023-02-24T12:46:39.848Z,15.27
2023-02-24T12:49:30.811Z,15.28
2023-02-24T12:52:37.119Z,15.55
2023-02-24T12:55:29.786Z,15.00
2023-02-24T12:58:16.187Z,15.49
2023-02-24T13:00:45.945Z,15.52
2023-02-24T13:03:36.834Z,15.16
2023-02-24T13:06:35.189Z,15.72
2023-02-24T13:09:24.553Z,15.34
2023-02-24T13:12:18.112Z,15.21
2023-02-24T13:14:47.842Z,15.27
2023-02-24T13:17:19.061Z,14.86
2023-02-24T13:19:49.283Z,15.33
2023-02-24T13:22:19.534Z,14.88
2023-02-24T13:24:57.916Z,15.51
2023-02-24T13:27:28.489Z,14.90
2023-02-24T13:30:02.789Z,14.79
2023-02-24T13:32:36.257Z,15.08
2023-02-24T13:35:09.030Z,15.39
2023-02-24T13:37:40.310Z,15.28
2023-02-24T13:40:25.752Z,15.03
2023-02-24T13:43:03.066Z,15.26
2023-02-24T13:45:43.366Z,15.30
2023-02-24T13:48:45.374Z,14.63
2023-02-24T13:51:24.270Z,15.17
2023-02-24T13:54:12.655Z,15.24
2023-02-24T13:56:46.810Z,14.97
2023-02-24T13:59:26.126Z,15.18
2023-02-24T14:02:03.585Z,15.51
2023-02-24T14:04:34.163Z,15.18
2023-02-24T14:07:11.339Z,14.96
2023-02-24T14:09:45.119Z,15.10
2023-02-24T14:12:28.967Z,15.25
2023-02-24T14:14:58.672Z,15.19
2023-02-24T14:17:38.595Z,15.14
2023-02-24T14:20:17.223Z,15.36
2023-02-24T14:22:50.763Z,14.96
2023-02-24T14:25:20.538Z,15.03
2023-02-24T14:27:52.397Z,14.93
2023-02-24T14:30:27.761Z,15.10
2023-02-24T14:32:57.600Z,15.13
2023-02-24T14:35:54.828Z,14.94
2023-02-24T14:38:45.679Z,15.04
2023-02-24T14:41:26.226Z,15.31
2023-02-24T14:43:57.872Z,15.02
2023-02-24T14:46:27.593Z,15.19
2023-02-24T14:48:58.153Z,15.22
2023-02-24T14:51:30.345Z,15.03
2023-02-24T14:54:01.906Z,15.10
2023-02-24T14:56:34.818Z,15.37
2023-02-24T14:59:16.924Z,15.17
2023-02-24T15:01:50.166Z,14.82
2023-02-24T15:04:39.254Z,14.99
2023-02-24T15:07:19.051Z,15.28
2023-02-24T15:09:49.115Z,15.21
2023-02-24T15:12:23.940Z,15.44
2023-02-24T15:15:02.383Z,15.10
2023-02-24T15:17:32.632Z,15.08
2023-02-24T15:20:02.193Z,15.14
2023-02-24T15:22:40.705Z,15.16
2023-02-24T15:25:28.067Z,15.23
2023-02-24T15:28:02.516Z,14.87
2023-02-24T15:30:38.662Z,15.01
2023-02-24T15:33:10.121Z,14.77
2023-02-24T15:35:39.991Z,15.10
2023-02-24T15:38:09.593Z,15.05
2023-02-24T15:40:39.213Z,15.01
2023-02-24T15:43:13.460Z,15.15
2023-02-24T15:45:42.386Z,15.13
2023-02-24T15:48:31.033Z,14.95
2023-02-24T15:51:02.113Z,15.18
2023-02-24T15:53:31.796Z,14.54
2023-02-24T15:56:01.571Z,15.05
2023-02-24T15:58:32.126Z,14.72
2023-02-24T16:01:01.773Z,14.95
2023-02-24T16:03:31.391Z,14.83
2023-02-24T16:06:01.211Z,14.78
2023-02-24T16:08:30.810Z,14.91
2023-02-24T16:11:00.448Z,15.08
2023-02-24T16:13:30.240Z,15.14
2023-02-24T16:15:59.955Z,15.13
2023-02-24T16:18:29.601Z,14.91
2023-02-24T16:20:59.234Z,15.06
2023-02-24T16:23:29.120Z,14.86
2023-02-24T16:26:00.331Z,15.09
2023-02-24T16:28:29.999Z,14.77
2023-02-24T16:30:59.873Z,14.96
2023-02-24T16:33:30.110Z,15.08
2023-02-24T16:36:00.073Z,14.98
2023-02-24T16:38:29.949Z,15.02
2023-02-24T16:40:59.498Z,14.86
2023-02-24T16:43:29.153Z,15.35
2023-02-24T16:46:04.266Z,14.91
2023-02-24T16:48:38.793Z,14.97
2023-02-24T16:51:11.251Z,14.79
2023-02-24T16:53:40.896Z,14.74
2023-02-24T16:56:10.685Z,15.01
2023-02-24T16:58:40.451Z,14.87
2023-02-24T17:01:11.103Z,15.01
2023-02-24T17:03:44.952Z,14.58
2023-02-24T17:06:14.734Z,14.96
2023-02-24T17:08:45.823Z,14.96
2023-02-24T17:11:16.503Z,15.04
2023-02-24T17:13:46.293Z,14.84
2023-02-24T17:16:15.961Z,14.88
2023-02-24T17:18:45.576Z,15.19
2023-02-24T17:21:15.975Z,15.07
2023-02-24T17:23:45.735Z,15.05
2023-02-24T17:26:18.570Z,14.81
2023-02-24T17:28:48.172Z,15.10
2023-02-24T17:31:17.832Z,15.08
2023-02-24T17:33:47.608Z,14.82
2023-02-24T17:36:17.408Z,14.99
2023-02-24T17:38:48.500Z,14.66
2023-02-24T17:41:18.104Z,15.04
2023-02-24T17:43:47.747Z,14.93
2023-02-24T17:46:17.327Z,15.03
2023-02-24T17:48:47.000Z,14.97
2023-02-24T17:51:17.638Z,14.82
2023-02-24T17:53:47.282Z,14.74
2023-02-24T17:56:16.924Z,14.71
2023-02-24T17:58:46.582Z,14.75
2023-02-24T18:01:16.225Z,14.90
2023-02-24T18:03:46.020Z,14.81
2023-02-24T18:06:15.777Z,14.97
2023-02-24T18:08:45.345Z,14.86
2023-02-24T18:11:18.833Z,14.99
2023-02-24T18:13:52.256Z,14.92
2023-02-24T18:16:22.129Z,14.92
2023-02-24T18:18:52.525Z,15.09
2023-02-24T18:21:22.185Z,14.93
2023-02-24T18:23:51.854Z,14.96
2023-02-24T18:26:23.880Z,14.90
2023-02-24T18:28:55.329Z,14.75
2023-02-24T18:31:26.300Z,14.82
2023-02-24T18:33:57.194Z,15.04
2023-02-24T18:36:27.308Z,14.83
2023-02-24T18:38:58.288Z,14.90
2023-02-24T18:41:28.347Z,14.54
2023-02-24T18:43:59.272Z,14.76
2023-02-24T18:46:29.293Z,14.70
2023-02-24T18:48:59.087Z,14.96
2023-02-24T18:51:30.516Z,14.83
2023-02-24T18:54:00.576Z,14.77
2023-02-24T18:56:30.915Z,14.80
2023-02-24T18:59:01.064Z,14.82
2023-02-24T19:01:38.099Z,14.65
2023-02-24T19:04:08.369Z,14.89
2023-02-24T19:06:38.560Z,14.91
2023-02-24T19:09:11.278Z,14.79
2023-02-24T19:11:41.457Z,14.99
2023-02-24T19:14:12.508Z,14.90
2023-02-24T19:16:42.236Z,15.07
2023-02-24T19:19:17.556Z,14.91
2023-02-24T19:21:47.201Z,14.71
2023-02-24T19:24:16.880Z,14.75
2023-02-24T19:26:47.417Z,14.94
2023-02-24T19:29:17.925Z,14.69
2023-02-24T19:31:47.688Z,14.62
2023-02-24T19:34:17.542Z,14.83
2023-02-24T19:36:47.176Z,14.81
2023-02-24T19:39:17.637Z,14.90
2023-02-24T19:41:49.444Z,14.69
2023-02-24T19:44:19.427Z,14.89
2023-02-24T19:46:49.057Z,14.80
2023-02-24T19:49:18.609Z,14.67
2023-02-24T19:51:48.520Z,14.69
2023-02-24T19:54:18.348Z,14.85
2023-02-24T19:56:47.915Z,14.41
2023-02-24T19:59:17.620Z,14.73
2023-02-24T20:01:48.125Z,14.80
2023-02-24T20:04:17.811Z,14.76
2023-02-24T20:06:47.460Z,14.92
2023-02-24T20:09:19.122Z,14.79
2023-02-24T20:11:49.349Z,14.76
2023-02-24T20:14:20.037Z,14.63
2023-02-24T20:16:49.895Z,14.50
2023-02-24T20:19:19.690Z,14.43
2023-02-24T20:21:49.588Z,14.76
2023-02-24T20:24:19.442Z,14.54
2023-02-24T20:26:51.037Z,14.58
2023-02-24T20:29:22.256Z,14.77
2023-02-24T20:31:52.119Z,14.63
2023-02-24T20:34:22.141Z,14.85
2023-02-24T20:36:51.742Z,14.52
2023-02-24T20:39:23.357Z,14.52
2023-02-24T20:41:55.311Z,14.79
2023-02-24T20:44:24.929Z,14.40
2023-02-24T20:46:54.542Z,14.75
2023-02-24T20:49:24.183Z,14.95
2023-02-24T20:51:53.782Z,14.67
2023-02-24T20:54:24.429Z,14.69
2023-02-24T20:56:54.055Z,14.66
2023-02-24T20:59:23.828Z,14.64
2023-02-24T21:01:53.781Z,14.27
2023-02-24T21:04:23.676Z,14.99
2023-02-24T21:06:53.475Z,14.73
2023-02-24T21:09:23.087Z,14.39
2023-02-24T21:11:52.678Z,14.54
2023-02-24T21:14:23.818Z,14.37
2023-02-24T21:16:54.350Z,14.53
2023-02-24T21:19:24.320Z,14.60
2023-02-24T21:21:53.897Z,14.35
2023-02-24T21:24:24.333Z,14.45
2023-02-24T21:26:54.000Z,14.55
2023-02-24T21:29:23.559Z,14.66
2023-02-24T21:31:53.323Z,14.72
2023-02-24T21:34:23.064Z,14.30
2023-02-24T21:36:52.843Z,14.49
2023-02-24T21:39:22.498Z,14.57
2023-02-24T21:41:52.251Z,14.85
2023-02-24T21:44:23.024Z,14.44
2023-02-24T21:46:52.697Z,14.40
2023-02-24T21:49:22.329Z,14.41
2023-02-24T21:51:56.675Z,14.46
2023-02-24T21:54:28.013Z,14.88
2023-02-24T21:56:57.631Z,14.38
2023-02-24T21:59:27.214Z,14.83
2023-02-24T22:01:56.985Z,14.55
2023-02-24T22:04:26.661Z,14.65
2023-02-24T22:06:56.340Z,14.87
2023-02-24T22:09:27.054Z,14.70
2023-02-24T22:11:56.693Z,14.75
2023-02-24T22:14:26.385Z,14.59
2023-02-24T22:16:56.688Z,14.73
2023-02-24T22:19:26.618Z,14.37
2023-02-24T22:21:56.248Z,14.73
2023-02-24T22:24:25.822Z,14.40
2023-02-24T22:26:55.422Z,14.95
2023-02-24T22:29:24.994Z,14.84
2023-02-24T22:31:55.032Z,14.56
2023-02-24T22:34:24.848Z,14.71
2023-02-24T22:36:55.181Z,14.63
2023-02-24T22:39:24.997Z,14.60
2023-02-24T22:41:54.641Z,14.91
2023-02-24T22:44:24.200Z,14.57
2023-02-24T22:46:53.782Z,14.69
2023-02-24T22:49:23.350Z,14.97
2023-02-24T22:51:52.925Z,14.63
2023-02-24T22:54:22.581Z,14.59
2023-02-24T22:56:52.260Z,14.47
2023-02-24T22:59:21.886Z,14.31
2023-02-24T23:01:51.449Z,14.59
2023-02-24T23:04:21.265Z,14.61
2023-02-24T23:06:50.851Z,15.00
2023-02-24T23:09:21.287Z,14.88
2023-02-24T23:11:50.950Z,14.87
2023-02-24T23:14:20.760Z,14.76
2023-02-24T23:16:56.817Z,14.44
2023-02-24T23:19:27.161Z,14.39
2023-02-24T23:21:57.957Z,14.63
2023-02-24T23:24:27.634Z,14.75
2023-02-24T23:26:59.189Z,14.19
2023-02-24T23:29:29.078Z,14.61
2023-02-24T23:31:58.910Z,14.62
2023-02-24T23:34:28.572Z,14.65
2023-02-24T23:36:58.112Z,14.31
2023-02-24T23:39:27.656Z,14.73
2023-02-24T23:41:57.817Z,14.52
2023-02-24T23:44:27.768Z,14.31
2023-02-24T23:46:59.663Z,14.47
2023-02-24T23:49:39.246Z,14.00
2023-02-24T23:52:17.110Z,14.05
2023-02-24T23:54:51.515Z,14.44
2023-02-24T23:57:22.287Z,14.29
2023-02-24T23:59:51.856Z,14.51
